YBLN

Busselton Regional Airport

Airport
ICAO code
YBLN
IATA Code
BQB
Summary
ICAO Region
APAC
ICAO Territory
Location

Brusselton, Western Australia

Serving
Brusselton
Elevation
55 ft
Coordinates
33° 41' 14" S , 115° 24' 1" E
Metar
YBLN 180030Z AUTO 09007KT 9999 // NCD 17/09 Q1029 RF00.0/000.0

Airport map

Aerial View

SKYbrary Partners:

Safety knowledge contributed by: